createdAt,value
2023-05-05T00:02:07.380Z,10.17
2023-05-05T00:04:38.976Z,10.09
2023-05-05T00:07:13.831Z,10.16
2023-05-05T00:09:41.838Z,10.21
2023-05-05T00:12:09.481Z,10.15
2023-05-05T00:14:39.575Z,10.17
2023-05-05T00:17:15.114Z,10.21
2023-05-05T00:19:47.127Z,9.99
2023-05-05T00:22:16.405Z,10.03
2023-05-05T00:24:50.346Z,9.92
2023-05-05T00:27:40.838Z,9.99
2023-05-05T00:31:09.356Z,10.25
2023-05-05T00:33:39.288Z,10.26
2023-05-05T00:36:07.212Z,10.33
2023-05-05T00:38:34.724Z,10.22
2023-05-05T00:41:08.024Z,10.19
2023-05-05T00:43:37.215Z,10.39
2023-05-05T00:46:15.219Z,10.28
2023-05-05T00:48:45.834Z,10.21
2023-05-05T00:51:14.217Z,10.09
2023-05-05T00:53:49.271Z,10.28
2023-05-05T00:56:22.710Z,10.40
2023-05-05T00:58:49.956Z,10.19
2023-05-05T01:01:20.690Z,10.12
2023-05-05T01:03:48.130Z,10.03
2023-05-05T12:33:57.208Z,14.07
2023-05-05T12:36:28.755Z,14.59
2023-05-05T12:39:01.183Z,15.17
2023-05-05T12:41:33.948Z,15.23
2023-05-05T12:44:05.399Z,15.30
2023-05-05T12:46:48.668Z,14.46
2023-05-05T12:49:18.197Z,13.71
2023-05-05T12:51:56.165Z,14.02
2023-05-05T12:54:30.410Z,14.16
2023-05-05T12:57:01.904Z,14.05
2023-05-05T12:59:31.022Z,13.73
2023-05-05T13:02:09.519Z,13.11
2023-05-05T13:05:03.464Z,12.31
2023-05-05T13:07:33.404Z,12.01
2023-05-05T13:10:12.385Z,11.69
2023-05-05T13:12:41.813Z,11.40
2023-05-05T13:15:10.632Z,11.30
2023-05-05T13:17:38.303Z,11.27
2023-05-05T13:24:25.414Z,11.61
2023-05-05T13:27:45.983Z,12.54
2023-05-05T13:33:48.443Z,13.20
2023-05-05T13:36:19.267Z,13.24
2023-05-05T13:38:49.856Z,12.39
2023-05-05T13:41:30.564Z,12.45
2023-05-05T13:44:02.408Z,12.83
2023-05-05T13:46:39.101Z,13.07
2023-05-05T13:49:07.453Z,12.58
2023-05-05T13:52:09.605Z,12.55
2023-05-05T13:58:39.895Z,13.05
2023-05-05T14:22:38.821Z,13.18
2023-05-05T14:28:53.818Z,12.36
2023-05-05T14:31:31.104Z,11.78
2023-05-05T14:34:02.345Z,11.71
2023-05-05T14:36:57.399Z,11.94
2023-05-05T14:40:02.527Z,11.88
2023-05-05T14:42:31.336Z,11.80
2023-05-05T14:45:06.469Z,11.18
2023-05-05T14:47:35.110Z,11.36
2023-05-05T15:05:47.207Z,8.14
2023-05-05T15:08:19.190Z,8.01
2023-05-05T15:10:49.905Z,8.19
2023-05-05T15:13:17.951Z,8.36
2023-05-05T15:15:56.154Z,8.74
2023-05-05T15:18:26.302Z,8.79
2023-05-05T15:20:55.157Z,8.69
2023-05-05T15:23:27.415Z,8.80
2023-05-05T15:26:01.863Z,8.83
2023-05-05T15:28:29.353Z,8.99
2023-05-05T15:31:06.761Z,9.07
2023-05-05T15:36:17.966Z,9.10
2023-05-05T15:38:45.805Z,8.95
2023-05-05T15:41:15.662Z,8.83
2023-05-05T15:43:44.175Z,8.76
2023-05-05T15:46:17.123Z,8.97
2023-05-05T15:49:02.155Z,8.82
2023-05-05T15:51:43.083Z,8.65
2023-05-05T15:58:01.866Z,8.72
2023-05-05T16:00:32.256Z,8.79
2023-05-05T16:12:32.491Z,8.45
2023-05-05T16:15:02.391Z,8.50
2023-05-05T16:17:30.508Z,8.42
2023-05-05T16:20:11.633Z,8.33
2023-05-05T16:26:07.961Z,8.22
2023-05-05T16:28:36.142Z,8.08
2023-05-05T16:31:07.112Z,7.84
2023-05-05T16:33:36.656Z,7.62
2023-05-05T16:36:04.369Z,7.74
2023-05-05T16:49:26.767Z,7.70
2023-05-05T16:55:22.200Z,7.60
2023-05-05T16:57:49.713Z,7.48
2023-05-05T17:00:17.610Z,7.64
2023-05-05T17:02:48.461Z,7.65
2023-05-05T17:05:23.188Z,7.63
2023-05-05T17:07:55.104Z,7.74
2023-05-05T17:10:25.858Z,7.64
2023-05-05T17:12:57.354Z,7.54
2023-05-05T17:15:25.930Z,7.73
2023-05-05T17:17:54.324Z,7.75
2023-05-05T17:20:24.559Z,7.63
2023-05-05T17:22:55.120Z,7.78
2023-05-05T17:25:22.861Z,7.64
2023-05-05T17:27:50.364Z,7.74
2023-05-05T17:34:03.392Z,7.27
2023-05-05T17:40:12.481Z,7.34
2023-05-05T17:42:41.135Z,7.12
2023-05-05T17:45:57.873Z,7.49
2023-05-05T17:48:27.090Z,7.42
2023-05-05T17:50:55.004Z,7.27
2023-05-05T17:53:25.429Z,7.50
2023-05-05T17:55:54.145Z,7.39
2023-05-05T17:58:26.456Z,7.54
2023-05-05T18:01:00.028Z,7.60
2023-05-05T18:03:28.423Z,7.50
2023-05-05T18:06:12.555Z,7.46
2023-05-05T18:12:09.611Z,7.46
2023-05-05T18:14:47.326Z,7.38
2023-05-05T18:17:27.428Z,7.38
2023-05-05T18:19:56.214Z,7.19
2023-05-05T18:22:25.901Z,7.17
2023-05-05T18:24:59.267Z,7.09
2023-05-05T18:27:29.850Z,7.19
2023-05-05T18:30:05.635Z,7.00
2023-05-05T18:33:18.148Z,7.24
2023-05-05T18:35:51.178Z,7.05
2023-05-05T18:38:18.927Z,7.21
2023-05-05T18:40:46.608Z,7.21
2023-05-05T18:43:14.022Z,7.14
2023-05-05T18:45:42.356Z,7.06
2023-05-05T18:48:20.557Z,6.84
2023-05-05T18:50:49.293Z,6.82
2023-05-05T18:53:21.755Z,6.81
2023-05-05T18:55:50.698Z,6.92
2023-05-05T18:58:19.356Z,6.75
2023-05-05T19:00:47.152Z,6.76
2023-05-05T19:03:52.728Z,6.60
2023-05-05T19:06:28.528Z,6.62
2023-05-05T19:09:00.050Z,6.65
2023-05-05T19:11:27.949Z,6.62
2023-05-05T19:13:56.009Z,6.81
2023-05-05T19:16:23.898Z,6.76
2023-05-05T19:18:59.336Z,6.67
2023-05-05T19:25:55.611Z,6.69
2023-05-05T19:28:28.412Z,6.71
2023-05-05T19:31:48.949Z,6.80
2023-05-05T19:41:21.238Z,6.55
2023-05-05T19:44:32.357Z,6.61
2023-05-05T19:47:32.858Z,6.58
2023-05-05T19:50:05.919Z,6.35
2023-05-05T19:53:04.039Z,6.37
2023-05-05T19:55:35.085Z,6.23
2023-05-05T19:58:04.917Z,6.22
2023-05-05T20:00:32.766Z,6.31
2023-05-05T20:03:16.028Z,6.49
2023-05-05T20:05:43.789Z,6.35
2023-05-05T20:08:11.528Z,6.61
2023-05-05T20:11:14.188Z,6.49
2023-05-05T20:13:46.575Z,6.34
2023-05-05T20:16:50.611Z,6.55
2023-05-05T20:19:51.720Z,6.69
2023-05-05T20:22:21.429Z,6.81
2023-05-05T20:28:29.785Z,6.59
2023-05-05T20:31:42.099Z,6.77
2023-05-05T20:38:24.650Z,6.83
2023-05-05T20:44:22.909Z,6.79
2023-05-05T21:08:08.625Z,6.43
2023-05-05T21:21:51.825Z,5.91
2023-05-05T21:24:24.043Z,5.80
2023-05-05T21:27:10.349Z,6.16
2023-05-05T21:29:41.641Z,6.22
2023-05-05T21:32:21.569Z,5.93
2023-05-05T21:35:06.567Z,5.82
2023-05-05T21:41:25.534Z,5.80
2023-05-05T21:45:15.254Z,5.88
2023-05-05T21:47:44.269Z,5.89
2023-05-05T21:50:15.872Z,5.57
2023-05-05T21:53:52.001Z,5.72
2023-05-05T21:56:23.462Z,5.78
2023-05-05T21:58:57.021Z,5.51
2023-05-05T22:01:40.302Z,5.79
2023-05-05T22:04:12.921Z,5.52
2023-05-05T22:13:26.144Z,5.84
2023-05-05T22:20:02.693Z,5.65
2023-05-05T22:26:25.655Z,5.29
2023-05-05T22:29:20.794Z,5.41
2023-05-05T22:31:57.675Z,5.18
2023-05-05T22:34:28.065Z,5.15
2023-05-05T22:36:56.108Z,4.97
2023-05-05T22:39:24.109Z,4.72
2023-05-05T22:41:57.139Z,4.84
2023-05-05T22:44:27.777Z,4.88
2023-05-05T22:46:59.835Z,5.12
2023-05-05T22:49:29.725Z,4.86
2023-05-05T22:52:02.764Z,4.86
2023-05-05T22:54:38.023Z,4.62
2023-05-05T22:57:23.432Z,4.75
2023-05-05T22:59:56.899Z,4.49
2023-05-05T23:02:34.987Z,4.50
2023-05-05T23:08:00.307Z,4.56
2023-05-05T23:10:34.240Z,4.75
2023-05-05T23:13:02.399Z,4.75
2023-05-05T23:15:30.516Z,4.63
2023-05-05T23:18:03.116Z,4.41
2023-05-05T23:21:16.528Z,4.51
2023-05-05T23:24:33.941Z,4.48
2023-05-05T23:27:02.585Z,4.41
2023-05-05T23:29:31.496Z,4.64
2023-05-05T23:32:09.813Z,4.37
2023-05-05T23:34:37.625Z,4.29
2023-05-05T23:37:08.007Z,4.12
2023-05-05T23:39:38.164Z,3.89
2023-05-05T23:42:06.412Z,4.24
2023-05-05T23:44:37.447Z,4.23
2023-05-05T23:47:05.414Z,4.41
2023-05-05T23:50:23.698Z,4.58
2023-05-05T23:52:52.414Z,4.17
2023-05-05T23:55:20.170Z,4.15
2023-05-05T23:57:47.795Z,4.07
